sensor_id;sensor_type;location;lat;lon;timestamp;P1;durP1;ratioP1;P2;durP2;ratioP2
7330;SDS011;3706;49.198;7.064;2023-10-19T00:01:54;24.07;;;16.97;;
7330;SDS011;3706;49.198;7.064;2023-10-19T00:04:23;19.47;;;15.20;;
7330;SDS011;3706;49.198;7.064;2023-10-19T00:06:51;21.87;;;13.97;;
7330;SDS011;3706;49.198;7.064;2023-10-19T00:09:18;18.47;;;13.43;;
7330;SDS011;3706;49.198;7.064;2023-10-19T00:11:45;20.30;;;14.23;;
7330;SDS011;3706;49.198;7.064;2023-10-19T00:14:12;19.07;;;13.60;;
7330;SDS011;3706;49.198;7.064;2023-10-19T00:16:43;22.23;;;14.83;;
7330;SDS011;3706;49.198;7.064;2023-10-19T00:19:21;19.13;;;13.40;;
7330;SDS011;3706;49.198;7.064;2023-10-19T00:21:53;17.93;;;13.70;;
7330;SDS011;3706;49.198;7.064;2023-10-19T00:24:20;17.73;;;13.27;;
7330;SDS011;3706;49.198;7.064;2023-10-19T00:26:48;19.03;;;12.37;;
7330;SDS011;3706;49.198;7.064;2023-10-19T00:29:18;20.53;;;13.93;;
7330;SDS011;3706;49.198;7.064;2023-10-19T00:31:58;19.97;;;14.60;;
7330;SDS011;3706;49.198;7.064;2023-10-19T00:34:25;17.40;;;13.33;;
7330;SDS011;3706;49.198;7.064;2023-10-19T00:36:53;17.90;;;13.63;;
7330;SDS011;3706;49.198;7.064;2023-10-19T00:39:22;20.93;;;14.37;;
7330;SDS011;3706;49.198;7.064;2023-10-19T00:41:49;18.40;;;11.90;;
7330;SDS011;3706;49.198;7.064;2023-10-19T00:44:18;17.17;;;12.57;;
7330;SDS011;3706;49.198;7.064;2023-10-19T00:46:56;18.57;;;12.50;;
7330;SDS011;3706;49.198;7.064;2023-10-19T00:49:28;19.20;;;12.60;;
7330;SDS011;3706;49.198;7.064;2023-10-19T00:51:55;18.70;;;12.30;;
7330;SDS011;3706;49.198;7.064;2023-10-19T00:54:29;20.03;;;13.30;;
7330;SDS011;3706;49.198;7.064;2023-10-19T00:56:58;12.83;;;9.70;;
7330;SDS011;3706;49.198;7.064;2023-10-19T00:59:29;18.13;;;12.00;;
7330;SDS011;3706;49.198;7.064;2023-10-19T01:02:01;17.07;;;12.60;;
7330;SDS011;3706;49.198;7.064;2023-10-19T01:04:42;17.30;;;12.83;;
7330;SDS011;3706;49.198;7.064;2023-10-19T01:07:09;16.90;;;11.77;;
7330;SDS011;3706;49.198;7.064;2023-10-19T01:09:41;18.43;;;12.00;;
7330;SDS011;3706;49.198;7.064;2023-10-19T01:12:09;18.27;;;12.27;;
7330;SDS011;3706;49.198;7.064;2023-10-19T01:15:06;17.57;;;12.37;;
7330;SDS011;3706;49.198;7.064;2023-10-19T01:17:39;18.13;;;11.93;;
7330;SDS011;3706;49.198;7.064;2023-10-19T01:20:09;16.17;;;11.83;;
7330;SDS011;3706;49.198;7.064;2023-10-19T01:22:49;18.43;;;12.20;;
7330;SDS011;3706;49.198;7.064;2023-10-19T01:25:19;20.90;;;12.33;;
7330;SDS011;3706;49.198;7.064;2023-10-19T01:27:51;16.67;;;10.80;;
7330;SDS011;3706;49.198;7.064;2023-10-19T01:30:23;16.03;;;11.13;;
7330;SDS011;3706;49.198;7.064;2023-10-19T01:32:52;14.77;;;10.40;;
7330;SDS011;3706;49.198;7.064;2023-10-19T01:35:19;18.43;;;11.23;;
7330;SDS011;3706;49.198;7.064;2023-10-19T01:37:46;17.03;;;10.40;;
7330;SDS011;3706;49.198;7.064;2023-10-19T01:40:13;15.43;;;10.97;;
7330;SDS011;3706;49.198;7.064;2023-10-19T01:42:45;12.10;;;9.40;;
7330;SDS011;3706;49.198;7.064;2023-10-19T01:45:11;12.87;;;8.97;;
7330;SDS011;3706;49.198;7.064;2023-10-19T01:47:39;14.50;;;8.73;;
7330;SDS011;3706;49.198;7.064;2023-10-19T01:50:06;15.53;;;10.10;;
7330;SDS011;3706;49.198;7.064;2023-10-19T01:52:45;14.63;;;9.93;;
7330;SDS011;3706;49.198;7.064;2023-10-19T01:55:11;13.77;;;9.83;;
7330;SDS011;3706;49.198;7.064;2023-10-19T01:57:45;12.03;;;9.17;;
7330;SDS011;3706;49.198;7.064;2023-10-19T02:00:12;11.83;;;7.87;;
7330;SDS011;3706;49.198;7.064;2023-10-19T02:02:48;14.73;;;9.63;;
7330;SDS011;3706;49.198;7.064;2023-10-19T02:05:15;13.37;;;8.73;;
7330;SDS011;3706;49.198;7.064;2023-10-19T02:07:44;14.80;;;9.43;;
7330;SDS011;3706;49.198;7.064;2023-10-19T02:10:10;11.37;;;7.90;;
7330;SDS011;3706;49.198;7.064;2023-10-19T02:12:38;13.83;;;8.33;;
7330;SDS011;3706;49.198;7.064;2023-10-19T02:15:07;14.40;;;8.93;;
7330;SDS011;3706;49.198;7.064;2023-10-19T02:17:34;10.87;;;7.77;;
7330;SDS011;3706;49.198;7.064;2023-10-19T02:20:00;13.23;;;8.07;;
7330;SDS011;3706;49.198;7.064;2023-10-19T02:22:38;10.47;;;7.30;;
7330;SDS011;3706;49.198;7.064;2023-10-19T02:25:05;12.13;;;7.50;;
7330;SDS011;3706;49.198;7.064;2023-10-19T02:27:33;11.37;;;7.00;;
7330;SDS011;3706;49.198;7.064;2023-10-19T02:30:01;9.63;;;6.70;;
7330;SDS011;3706;49.198;7.064;2023-10-19T02:32:28;15.17;;;7.23;;
7330;SDS011;3706;49.198;7.064;2023-10-19T02:34:58;12.40;;;7.27;;
7330;SDS011;3706;49.198;7.064;2023-10-19T02:37:24;13.00;;;7.20;;
7330;SDS011;3706;49.198;7.064;2023-10-19T02:39:50;11.83;;;7.37;;
7330;SDS011;3706;49.198;7.064;2023-10-19T02:42:17;8.93;;;6.97;;
7330;SDS011;3706;49.198;7.064;2023-10-19T02:44:47;13.80;;;6.73;;
7330;SDS011;3706;49.198;7.064;2023-10-19T02:47:17;11.27;;;6.70;;
7330;SDS011;3706;49.198;7.064;2023-10-19T02:49:43;10.43;;;6.60;;
7330;SDS011;3706;49.198;7.064;2023-10-19T02:52:16;25.07;;;7.30;;
7330;SDS011;3706;49.198;7.064;2023-10-19T02:54:42;14.57;;;6.80;;
7330;SDS011;3706;49.198;7.064;2023-10-19T02:57:08;12.17;;;6.93;;
7330;SDS011;3706;49.198;7.064;2023-10-19T02:59:37;21.37;;;7.27;;
7330;SDS011;3706;49.198;7.064;2023-10-19T03:02:04;13.43;;;6.77;;
7330;SDS011;3706;49.198;7.064;2023-10-19T03:04:34;13.20;;;6.93;;
7330;SDS011;3706;49.198;7.064;2023-10-19T03:07:01;9.33;;;6.87;;
7330;SDS011;3706;49.198;7.064;2023-10-19T03:09:28;11.17;;;6.80;;
7330;SDS011;3706;49.198;7.064;2023-10-19T03:11:55;9.63;;;6.97;;
7330;SDS011;3706;49.198;7.064;2023-10-19T03:14:24;13.73;;;7.70;;
7330;SDS011;3706;49.198;7.064;2023-10-19T03:16:51;13.57;;;6.80;;
7330;SDS011;3706;49.198;7.064;2023-10-19T03:19:19;12.50;;;6.43;;
7330;SDS011;3706;49.198;7.064;2023-10-19T03:21:48;8.07;;;5.83;;
7330;SDS011;3706;49.198;7.064;2023-10-19T03:24:14;9.97;;;6.23;;
7330;SDS011;3706;49.198;7.064;2023-10-19T03:26:48;10.20;;;7.33;;
7330;SDS011;3706;49.198;7.064;2023-10-19T03:29:14;9.50;;;5.90;;
7330;SDS011;3706;49.198;7.064;2023-10-19T03:31:43;9.97;;;6.80;;
7330;SDS011;3706;49.198;7.064;2023-10-19T03:34:12;9.73;;;7.10;;
7330;SDS011;3706;49.198;7.064;2023-10-19T03:36:41;11.30;;;7.13;;
7330;SDS011;3706;49.198;7.064;2023-10-19T03:39:10;12.40;;;7.87;;
7330;SDS011;3706;49.198;7.064;2023-10-19T03:41:37;11.07;;;7.97;;
7330;SDS011;3706;49.198;7.064;2023-10-19T03:44:07;9.90;;;7.17;;
7330;SDS011;3706;49.198;7.064;2023-10-19T03:46:38;12.67;;;7.70;;
7330;SDS011;3706;49.198;7.064;2023-10-19T03:49:18;10.80;;;6.93;;
7330;SDS011;3706;49.198;7.064;2023-10-19T03:51:45;12.03;;;7.47;;
7330;SDS011;3706;49.198;7.064;2023-10-19T03:54:26;15.13;;;7.10;;
7330;SDS011;3706;49.198;7.064;2023-10-19T03:56:53;10.37;;;6.87;;
7330;SDS011;3706;49.198;7.064;2023-10-19T03:59:22;10.33;;;7.87;;
7330;SDS011;3706;49.198;7.064;2023-10-19T04:01:54;12.53;;;7.83;;
7330;SDS011;3706;49.198;7.064;2023-10-19T04:04:24;15.63;;;7.50;;
7330;SDS011;3706;49.198;7.064;2023-10-19T04:06:52;11.63;;;6.60;;
7330;SDS011;3706;49.198;7.064;2023-10-19T04:09:23;11.80;;;6.53;;
7330;SDS011;3706;49.198;7.064;2023-10-19T04:11:55;11.80;;;7.07;;
7330;SDS011;3706;49.198;7.064;2023-10-19T04:14:22;13.77;;;6.93;;
7330;SDS011;3706;49.198;7.064;2023-10-19T04:16:49;12.80;;;7.03;;
7330;SDS011;3706;49.198;7.064;2023-10-19T04:19:16;12.43;;;7.60;;
7330;SDS011;3706;49.198;7.064;2023-10-19T04:21:43;9.83;;;7.03;;
7330;SDS011;3706;49.198;7.064;2023-10-19T04:24:11;13.10;;;7.63;;
7330;SDS011;3706;49.198;7.064;2023-10-19T04:26:39;16.33;;;7.20;;
7330;SDS011;3706;49.198;7.064;2023-10-19T04:29:09;13.27;;;7.03;;
7330;SDS011;3706;49.198;7.064;2023-10-19T04:31:36;9.27;;;6.50;;
7330;SDS011;3706;49.198;7.064;2023-10-19T04:34:14;10.83;;;6.10;;
7330;SDS011;3706;49.198;7.064;2023-10-19T04:36:45;12.20;;;6.00;;
7330;SDS011;3706;49.198;7.064;2023-10-19T04:39:12;8.30;;;5.60;;
7330;SDS011;3706;49.198;7.064;2023-10-19T04:41:39;15.43;;;6.63;;
7330;SDS011;3706;49.198;7.064;2023-10-19T04:44:06;10.73;;;6.40;;
7330;SDS011;3706;49.198;7.064;2023-10-19T04:46:34;11.77;;;6.27;;
7330;SDS011;3706;49.198;7.064;2023-10-19T04:49:01;13.90;;;6.23;;
7330;SDS011;3706;49.198;7.064;2023-10-19T04:51:29;17.33;;;7.40;;
7330;SDS011;3706;49.198;7.064;2023-10-19T04:53:56;9.73;;;5.73;;
7330;SDS011;3706;49.198;7.064;2023-10-19T04:56:23;10.53;;;6.10;;
7330;SDS011;3706;49.198;7.064;2023-10-19T04:58:50;10.60;;;6.53;;
7330;SDS011;3706;49.198;7.064;2023-10-19T05:01:19;9.93;;;6.10;;
7330;SDS011;3706;49.198;7.064;2023-10-19T05:03:46;10.57;;;6.10;;
7330;SDS011;3706;49.198;7.064;2023-10-19T05:06:13;11.47;;;5.90;;
7330;SDS011;3706;49.198;7.064;2023-10-19T05:08:40;10.57;;;5.80;;
7330;SDS011;3706;49.198;7.064;2023-10-19T05:11:07;8.57;;;5.47;;
7330;SDS011;3706;49.198;7.064;2023-10-19T05:13:34;9.03;;;6.07;;
7330;SDS011;3706;49.198;7.064;2023-10-19T05:16:02;14.90;;;5.93;;
7330;SDS011;3706;49.198;7.064;2023-10-19T05:18:31;11.03;;;5.50;;
7330;SDS011;3706;49.198;7.064;2023-10-19T05:20:58;7.57;;;5.83;;
7330;SDS011;3706;49.198;7.064;2023-10-19T05:23:26;7.70;;;5.63;;
7330;SDS011;3706;49.198;7.064;2023-10-19T05:25:59;8.87;;;5.60;;
7330;SDS011;3706;49.198;7.064;2023-10-19T05:28:27;11.73;;;5.60;;
7330;SDS011;3706;49.198;7.064;2023-10-19T05:30:54;10.83;;;6.20;;
7330;SDS011;3706;49.198;7.064;2023-10-19T05:33:21;7.83;;;5.67;;
7330;SDS011;3706;49.198;7.064;2023-10-19T05:35:50;11.13;;;5.47;;
7330;SDS011;3706;49.198;7.064;2023-10-19T05:38:17;8.10;;;4.83;;
7330;SDS011;3706;49.198;7.064;2023-10-19T05:40:47;13.27;;;6.23;;
7330;SDS011;3706;49.198;7.064;2023-10-19T05:43:15;16.23;;;6.40;;
7330;SDS011;3706;49.198;7.064;2023-10-19T05:45:42;9.17;;;5.67;;
7330;SDS011;3706;49.198;7.064;2023-10-19T05:48:09;6.90;;;5.00;;
7330;SDS011;3706;49.198;7.064;2023-10-19T05:50:36;8.13;;;5.23;;
7330;SDS011;3706;49.198;7.064;2023-10-19T05:53:05;8.63;;;5.27;;
7330;SDS011;3706;49.198;7.064;2023-10-19T05:55:32;9.00;;;5.50;;
7330;SDS011;3706;49.198;7.064;2023-10-19T05:58:01;9.50;;;5.43;;
7330;SDS011;3706;49.198;7.064;2023-10-19T06:00:29;9.13;;;5.63;;
7330;SDS011;3706;49.198;7.064;2023-10-19T06:02:56;6.50;;;4.67;;
7330;SDS011;3706;49.198;7.064;2023-10-19T06:05:24;9.67;;;5.53;;
7330;SDS011;3706;49.198;7.064;2023-10-19T06:07:51;10.10;;;5.47;;
7330;SDS011;3706;49.198;7.064;2023-10-19T06:10:20;13.90;;;5.83;;
7330;SDS011;3706;49.198;7.064;2023-10-19T06:12:48;16.97;;;8.47;;
7330;SDS011;3706;49.198;7.064;2023-10-19T06:15:17;16.77;;;8.87;;
7330;SDS011;3706;49.198;7.064;2023-10-19T06:17:46;10.07;;;6.03;;
7330;SDS011;3706;49.198;7.064;2023-10-19T06:20:14;14.77;;;6.47;;
7330;SDS011;3706;49.198;7.064;2023-10-19T06:22:51;11.37;;;5.67;;
7330;SDS011;3706;49.198;7.064;2023-10-19T06:25:20;10.13;;;6.30;;
7330;SDS011;3706;49.198;7.064;2023-10-19T06:27:48;8.20;;;5.07;;
7330;SDS011;3706;49.198;7.064;2023-10-19T06:30:16;10.33;;;5.33;;
7330;SDS011;3706;49.198;7.064;2023-10-19T06:32:45;10.33;;;6.00;;
7330;SDS011;3706;49.198;7.064;2023-10-19T06:35:13;8.23;;;5.33;;
7330;SDS011;3706;49.198;7.064;2023-10-19T06:37:40;7.27;;;5.27;;
7330;SDS011;3706;49.198;7.064;2023-10-19T06:40:08;11.93;;;4.77;;
7330;SDS011;3706;49.198;7.064;2023-10-19T06:42:38;11.23;;;6.60;;
7330;SDS011;3706;49.198;7.064;2023-10-19T06:45:05;9.17;;;5.90;;
7330;SDS011;3706;49.198;7.064;2023-10-19T06:47:35;10.63;;;5.50;;
7330;SDS011;3706;49.198;7.064;2023-10-19T06:50:03;9.60;;;6.17;;
7330;SDS011;3706;49.198;7.064;2023-10-19T06:52:32;10.97;;;6.00;;
7330;SDS011;3706;49.198;7.064;2023-10-19T06:55:01;11.77;;;6.63;;
7330;SDS011;3706;49.198;7.064;2023-10-19T06:57:29;12.97;;;7.00;;
7330;SDS011;3706;49.198;7.064;2023-10-19T06:59:57;62.97;;;10.17;;
7330;SDS011;3706;49.198;7.064;2023-10-19T07:02:24;13.03;;;7.57;;
7330;SDS011;3706;49.198;7.064;2023-10-19T07:04:51;16.90;;;7.10;;
7330;SDS011;3706;49.198;7.064;2023-10-19T07:07:18;11.10;;;6.87;;
7330;SDS011;3706;49.198;7.064;2023-10-19T07:09:45;9.50;;;6.33;;
7330;SDS011;3706;49.198;7.064;2023-10-19T07:12:12;7.57;;;5.63;;
7330;SDS011;3706;49.198;7.064;2023-10-19T07:14:39;9.67;;;6.80;;
7330;SDS011;3706;49.198;7.064;2023-10-19T07:17:08;8.10;;;6.50;;
7330;SDS011;3706;49.198;7.064;2023-10-19T07:19:34;11.63;;;6.03;;
7330;SDS011;3706;49.198;7.064;2023-10-19T07:22:02;8.87;;;5.90;;
7330;SDS011;3706;49.198;7.064;2023-10-19T07:24:29;6.57;;;5.27;;
7330;SDS011;3706;49.198;7.064;2023-10-19T07:26:55;8.10;;;5.23;;
7330;SDS011;3706;49.198;7.064;2023-10-19T07:29:30;11.30;;;5.20;;
7330;SDS011;3706;49.198;7.064;2023-10-19T07:31:58;5.83;;;4.77;;
7330;SDS011;3706;49.198;7.064;2023-10-19T07:34:27;6.23;;;3.73;;
7330;SDS011;3706;49.198;7.064;2023-10-19T07:36:58;4.10;;;3.07;;
7330;SDS011;3706;49.198;7.064;2023-10-19T07:39:26;6.60;;;3.00;;
7330;SDS011;3706;49.198;7.064;2023-10-19T07:41:54;8.27;;;2.73;;
7330;SDS011;3706;49.198;7.064;2023-10-19T07:44:21;3.57;;;2.57;;
7330;SDS011;3706;49.198;7.064;2023-10-19T07:46:49;5.00;;;2.97;;
7330;SDS011;3706;49.198;7.064;2023-10-19T07:49:16;3.60;;;2.77;;
7330;SDS011;3706;49.198;7.064;2023-10-19T07:51:47;4.57;;;2.57;;
7330;SDS011;3706;49.198;7.064;2023-10-19T07:54:14;7.60;;;2.70;;
7330;SDS011;3706;49.198;7.064;2023-10-19T07:56:41;5.50;;;2.93;;
7330;SDS011;3706;49.198;7.064;2023-10-19T07:59:09;6.40;;;2.90;;
7330;SDS011;3706;49.198;7.064;2023-10-19T08:01:37;6.87;;;3.27;;
7330;SDS011;3706;49.198;7.064;2023-10-19T08:04:04;3.07;;;2.10;;
7330;SDS011;3706;49.198;7.064;2023-10-19T08:06:31;4.07;;;2.60;;
7330;SDS011;3706;49.198;7.064;2023-10-19T08:08:59;5.20;;;2.70;;
7330;SDS011;3706;49.198;7.064;2023-10-19T08:11:26;4.97;;;2.60;;
7330;SDS011;3706;49.198;7.064;2023-10-19T08:13:53;4.10;;;2.47;;
7330;SDS011;3706;49.198;7.064;2023-10-19T08:16:21;4.30;;;2.50;;
7330;SDS011;3706;49.198;7.064;2023-10-19T08:18:49;4.87;;;2.27;;
7330;SDS011;3706;49.198;7.064;2023-10-19T08:21:17;6.20;;;2.63;;
7330;SDS011;3706;49.198;7.064;2023-10-19T08:23:45;6.70;;;2.93;;
7330;SDS011;3706;49.198;7.064;2023-10-19T08:26:14;6.53;;;3.47;;
7330;SDS011;3706;49.198;7.064;2023-10-19T08:28:41;4.80;;;3.10;;
7330;SDS011;3706;49.198;7.064;2023-10-19T08:31:08;7.47;;;2.90;;
7330;SDS011;3706;49.198;7.064;2023-10-19T08:33:36;6.33;;;3.10;;
7330;SDS011;3706;49.198;7.064;2023-10-19T08:36:06;3.40;;;2.30;;
7330;SDS011;3706;49.198;7.064;2023-10-19T08:38:44;6.77;;;2.90;;
7330;SDS011;3706;49.198;7.064;2023-10-19T08:41:11;6.20;;;2.60;;
7330;SDS011;3706;49.198;7.064;2023-10-19T08:43:41;6.43;;;2.90;;
7330;SDS011;3706;49.198;7.064;2023-10-19T08:46:07;4.27;;;2.30;;
7330;SDS011;3706;49.198;7.064;2023-10-19T08:48:37;7.47;;;2.70;;
7330;SDS011;3706;49.198;7.064;2023-10-19T08:51:10;7.90;;;2.70;;
7330;SDS011;3706;49.198;7.064;2023-10-19T08:53:37;4.57;;;2.60;;
7330;SDS011;3706;49.198;7.064;2023-10-19T08:56:05;4.40;;;2.60;;
7330;SDS011;3706;49.198;7.064;2023-10-19T08:58:34;6.23;;;2.40;;
7330;SDS011;3706;49.198;7.064;2023-10-19T09:01:01;7.63;;;2.60;;
7330;SDS011;3706;49.198;7.064;2023-10-19T09:03:35;4.80;;;2.40;;
7330;SDS011;3706;49.198;7.064;2023-10-19T09:06:04;4.90;;;2.60;;
7330;SDS011;3706;49.198;7.064;2023-10-19T09:08:31;3.17;;;2.47;;
7330;SDS011;3706;49.198;7.064;2023-10-19T09:11:05;4.50;;;2.50;;
7330;SDS011;3706;49.198;7.064;2023-10-19T09:13:43;4.90;;;2.33;;
7330;SDS011;3706;49.198;7.064;2023-10-19T09:16:14;5.63;;;2.67;;
7330;SDS011;3706;49.198;7.064;2023-10-19T09:18:41;4.03;;;2.30;;
7330;SDS011;3706;49.198;7.064;2023-10-19T09:21:10;4.20;;;2.40;;
7330;SDS011;3706;49.198;7.064;2023-10-19T09:23:38;4.93;;;2.30;;
7330;SDS011;3706;49.198;7.064;2023-10-19T09:26:07;3.37;;;2.43;;
7330;SDS011;3706;49.198;7.064;2023-10-19T09:28:34;4.80;;;2.60;;
7330;SDS011;3706;49.198;7.064;2023-10-19T09:31:03;4.10;;;2.37;;
7330;SDS011;3706;49.198;7.064;2023-10-19T09:33:31;5.17;;;2.37;;
7330;SDS011;3706;49.198;7.064;2023-10-19T09:36:00;4.10;;;3.27;;
7330;SDS011;3706;49.198;7.064;2023-10-19T09:38:29;4.97;;;2.67;;
7330;SDS011;3706;49.198;7.064;2023-10-19T09:40:58;5.57;;;2.50;;
7330;SDS011;3706;49.198;7.064;2023-10-19T09:43:30;5.73;;;2.57;;
7330;SDS011;3706;49.198;7.064;2023-10-19T09:46:05;5.27;;;2.70;;
7330;SDS011;3706;49.198;7.064;2023-10-19T09:48:34;4.47;;;2.23;;
7330;SDS011;3706;49.198;7.064;2023-10-19T09:51:07;6.60;;;3.00;;
7330;SDS011;3706;49.198;7.064;2023-10-19T09:53:34;4.90;;;2.73;;
7330;SDS011;3706;49.198;7.064;2023-10-19T09:56:05;2.73;;;2.17;;
7330;SDS011;3706;49.198;7.064;2023-10-19T09:58:35;8.77;;;5.60;;
7330;SDS011;3706;49.198;7.064;2023-10-19T10:01:07;4.70;;;3.10;;
7330;SDS011;3706;49.198;7.064;2023-10-19T10:03:46;6.00;;;2.70;;
7330;SDS011;3706;49.198;7.064;2023-10-19T10:06:14;3.50;;;2.27;;
7330;SDS011;3706;49.198;7.064;2023-10-19T10:08:45;3.33;;;2.23;;
7330;SDS011;3706;49.198;7.064;2023-10-19T10:11:13;3.73;;;2.90;;
7330;SDS011;3706;49.198;7.064;2023-10-19T10:13:49;7.23;;;3.60;;
7330;SDS011;3706;49.198;7.064;2023-10-19T10:16:18;3.50;;;2.63;;
7330;SDS011;3706;49.198;7.064;2023-10-19T10:18:48;5.70;;;2.73;;
7330;SDS011;3706;49.198;7.064;2023-10-19T10:21:16;3.63;;;2.40;;
7330;SDS011;3706;49.198;7.064;2023-10-19T10:23:47;3.63;;;2.47;;
7330;SDS011;3706;49.198;7.064;2023-10-19T10:26:16;3.77;;;2.53;;
7330;SDS011;3706;49.198;7.064;2023-10-19T10:28:47;4.80;;;3.20;;
7330;SDS011;3706;49.198;7.064;2023-10-19T10:31:15;5.80;;;2.30;;
7330;SDS011;3706;49.198;7.064;2023-10-19T10:33:48;2.87;;;2.27;;
7330;SDS011;3706;49.198;7.064;2023-10-19T10:36:16;2.67;;;1.97;;
7330;SDS011;3706;49.198;7.064;2023-10-19T10:38:45;7.73;;;3.90;;
7330;SDS011;3706;49.198;7.064;2023-10-19T10:41:12;7.17;;;3.23;;
7330;SDS011;3706;49.198;7.064;2023-10-19T10:43:52;3.83;;;2.17;;
7330;SDS011;3706;49.198;7.064;2023-10-19T10:46:22;4.70;;;2.23;;
7330;SDS011;3706;49.198;7.064;2023-10-19T10:48:50;2.93;;;2.20;;
7330;SDS011;3706;49.198;7.064;2023-10-19T10:51:18;3.40;;;2.17;;
7330;SDS011;3706;49.198;7.064;2023-10-19T10:53:47;5.33;;;2.10;;
7330;SDS011;3706;49.198;7.064;2023-10-19T10:56:15;3.80;;;2.20;;
7330;SDS011;3706;49.198;7.064;2023-10-19T10:58:42;4.67;;;2.10;;
7330;SDS011;3706;49.198;7.064;2023-10-19T11:01:09;4.83;;;2.30;;
7330;SDS011;3706;49.198;7.064;2023-10-19T11:03:38;2.83;;;2.10;;
7330;SDS011;3706;49.198;7.064;2023-10-19T11:06:05;3.30;;;2.10;;
7330;SDS011;3706;49.198;7.064;2023-10-19T11:08:33;4.67;;;2.00;;
7330;SDS011;3706;49.198;7.064;2023-10-19T11:11:04;4.77;;;2.20;;
7330;SDS011;3706;49.198;7.064;2023-10-19T11:13:35;3.70;;;2.07;;
7330;SDS011;3706;49.198;7.064;2023-10-19T11:16:03;4.37;;;1.77;;
7330;SDS011;3706;49.198;7.064;2023-10-19T11:18:33;5.30;;;2.40;;
7330;SDS011;3706;49.198;7.064;2023-10-19T11:21:07;5.10;;;2.63;;
7330;SDS011;3706;49.198;7.064;2023-10-19T11:23:39;3.33;;;1.87;;
7330;SDS011;3706;49.198;7.064;2023-10-19T11:26:08;3.97;;;2.10;;
7330;SDS011;3706;49.198;7.064;2023-10-19T11:28:36;5.33;;;1.80;;
7330;SDS011;3706;49.198;7.064;2023-10-19T11:31:12;1.67;;;1.40;;
7330;SDS011;3706;49.198;7.064;2023-10-19T11:33:40;3.67;;;1.60;;
7330;SDS011;3706;49.198;7.064;2023-10-19T11:36:10;3.00;;;1.60;;
7330;SDS011;3706;49.198;7.064;2023-10-19T11:38:39;3.40;;;1.70;;
7330;SDS011;3706;49.198;7.064;2023-10-19T11:41:07;3.10;;;1.90;;
7330;SDS011;3706;49.198;7.064;2023-10-19T11:43:34;2.40;;;1.77;;
7330;SDS011;3706;49.198;7.064;2023-10-19T11:46:01;1.90;;;1.53;;
7330;SDS011;3706;49.198;7.064;2023-10-19T11:48:29;2.07;;;1.60;;
7330;SDS011;3706;49.198;7.064;2023-10-19T11:50:57;3.20;;;1.93;;
7330;SDS011;3706;49.198;7.064;2023-10-19T11:53:25;3.93;;;1.93;;
7330;SDS011;3706;49.198;7.064;2023-10-19T11:55:54;5.27;;;1.63;;
7330;SDS011;3706;49.198;7.064;2023-10-19T11:58:21;4.20;;;2.17;;
7330;SDS011;3706;49.198;7.064;2023-10-19T12:00:48;3.50;;;1.87;;
7330;SDS011;3706;49.198;7.064;2023-10-19T12:03:16;3.47;;;2.10;;
7330;SDS011;3706;49.198;7.064;2023-10-19T12:05:45;4.87;;;2.13;;
7330;SDS011;3706;49.198;7.064;2023-10-19T12:08:12;4.83;;;2.57;;
7330;SDS011;3706;49.198;7.064;2023-10-19T12:10:40;3.60;;;2.70;;
7330;SDS011;3706;49.198;7.064;2023-10-19T12:13:07;4.37;;;2.67;;
7330;SDS011;3706;49.198;7.064;2023-10-19T12:15:34;3.97;;;2.10;;
7330;SDS011;3706;49.198;7.064;2023-10-19T12:18:01;3.93;;;2.50;;
7330;SDS011;3706;49.198;7.064;2023-10-19T12:20:29;3.77;;;2.43;;
7330;SDS011;3706;49.198;7.064;2023-10-19T12:22:57;4.33;;;2.50;;
7330;SDS011;3706;49.198;7.064;2023-10-19T12:25:24;5.13;;;3.00;;
7330;SDS011;3706;49.198;7.064;2023-10-19T12:27:56;5.73;;;4.60;;
7330;SDS011;3706;49.198;7.064;2023-10-19T12:30:25;4.60;;;2.07;;
7330;SDS011;3706;49.198;7.064;2023-10-19T12:32:59;4.23;;;2.40;;
7330;SDS011;3706;49.198;7.064;2023-10-19T12:35:26;3.27;;;2.13;;
7330;SDS011;3706;49.198;7.064;2023-10-19T12:38:09;3.43;;;2.37;;
7330;SDS011;3706;49.198;7.064;2023-10-19T12:40:41;3.57;;;2.40;;
7330;SDS011;3706;49.198;7.064;2023-10-19T12:43:10;3.93;;;1.97;;
7330;SDS011;3706;49.198;7.064;2023-10-19T12:45:37;3.37;;;2.20;;
7330;SDS011;3706;49.198;7.064;2023-10-19T12:48:05;5.47;;;2.43;;
7330;SDS011;3706;49.198;7.064;2023-10-19T12:50:33;3.73;;;2.20;;
7330;SDS011;3706;49.198;7.064;2023-10-19T12:53:01;3.33;;;2.33;;
7330;SDS011;3706;49.198;7.064;2023-10-19T12:55:28;4.03;;;2.47;;
7330;SDS011;3706;49.198;7.064;2023-10-19T12:57:56;3.40;;;2.50;;
7330;SDS011;3706;49.198;7.064;2023-10-19T13:00:26;2.67;;;2.40;;
7330;SDS011;3706;49.198;7.064;2023-10-19T13:02:54;2.83;;;2.43;;
7330;SDS011;3706;49.198;7.064;2023-10-19T13:05:26;4.43;;;2.60;;
7330;SDS011;3706;49.198;7.064;2023-10-19T13:07:54;3.80;;;2.60;;
7330;SDS011;3706;49.198;7.064;2023-10-19T13:10:23;4.73;;;2.67;;
7330;SDS011;3706;49.198;7.064;2023-10-19T13:12:58;4.70;;;2.23;;
7330;SDS011;3706;49.198;7.064;2023-10-19T13:15:29;3.60;;;2.67;;
7330;SDS011;3706;49.198;7.064;2023-10-19T13:17:57;3.90;;;2.73;;
7330;SDS011;3706;49.198;7.064;2023-10-19T13:20:25;3.00;;;2.40;;
7330;SDS011;3706;49.198;7.064;2023-10-19T13:22:53;2.40;;;2.10;;
7330;SDS011;3706;49.198;7.064;2023-10-19T13:25:21;3.03;;;2.20;;
7330;SDS011;3706;49.198;7.064;2023-10-19T13:28:04;3.33;;;2.33;;
7330;SDS011;3706;49.198;7.064;2023-10-19T13:30:39;4.17;;;2.63;;
7330;SDS011;3706;49.198;7.064;2023-10-19T13:33:07;3.00;;;2.43;;
7330;SDS011;3706;49.198;7.064;2023-10-19T13:35:35;6.07;;;2.40;;
7330;SDS011;3706;49.198;7.064;2023-10-19T13:38:03;18.53;;;17.07;;
7330;SDS011;3706;49.198;7.064;2023-10-19T13:40:32;5.73;;;4.90;;
7330;SDS011;3706;49.198;7.064;2023-10-19T13:42:59;2.40;;;2.20;;
7330;SDS011;3706;49.198;7.064;2023-10-19T13:45:26;2.57;;;1.87;;
7330;SDS011;3706;49.198;7.064;2023-10-19T13:47:55;4.37;;;2.13;;
7330;SDS011;3706;49.198;7.064;2023-10-19T13:50:22;2.93;;;2.03;;
7330;SDS011;3706;49.198;7.064;2023-10-19T13:52:50;2.83;;;2.03;;
7330;SDS011;3706;49.198;7.064;2023-10-19T13:55:17;2.53;;;2.20;;
7330;SDS011;3706;49.198;7.064;2023-10-19T13:57:45;3.03;;;1.80;;
7330;SDS011;3706;49.198;7.064;2023-10-19T14:00:13;2.40;;;1.80;;
7330;SDS011;3706;49.198;7.064;2023-10-19T14:02:45;3.53;;;2.63;;
7330;SDS011;3706;49.198;7.064;2023-10-19T14:05:14;3.33;;;1.80;;
7330;SDS011;3706;49.198;7.064;2023-10-19T14:07:41;6.27;;;2.60;;
7330;SDS011;3706;49.198;7.064;2023-10-19T14:10:09;2.17;;;1.87;;
7330;SDS011;3706;49.198;7.064;2023-10-19T14:12:38;2.10;;;1.90;;
7330;SDS011;3706;49.198;7.064;2023-10-19T14:15:08;3.60;;;2.80;;
7330;SDS011;3706;49.198;7.064;2023-10-19T14:17:39;2.73;;;2.10;;
7330;SDS011;3706;49.198;7.064;2023-10-19T14:20:06;2.50;;;2.30;;
7330;SDS011;3706;49.198;7.064;2023-10-19T14:22:38;3.47;;;2.07;;
7330;SDS011;3706;49.198;7.064;2023-10-19T14:25:06;2.50;;;2.30;;
7330;SDS011;3706;49.198;7.064;2023-10-19T14:27:37;2.83;;;1.97;;
7330;SDS011;3706;49.198;7.064;2023-10-19T14:30:06;6.63;;;2.37;;
7330;SDS011;3706;49.198;7.064;2023-10-19T14:32:35;2.80;;;1.80;;
7330;SDS011;3706;49.198;7.064;2023-10-19T14:35:02;2.13;;;1.90;;
7330;SDS011;3706;49.198;7.064;2023-10-19T14:37:31;2.93;;;1.93;;
7330;SDS011;3706;49.198;7.064;2023-10-19T14:39:59;2.33;;;2.10;;
7330;SDS011;3706;49.198;7.064;2023-10-19T14:42:27;3.23;;;1.97;;
7330;SDS011;3706;49.198;7.064;2023-10-19T14:44:56;2.73;;;1.67;;
7330;SDS011;3706;49.198;7.064;2023-10-19T14:47:23;5.20;;;4.70;;
7330;SDS011;3706;49.198;7.064;2023-10-19T14:49:51;11.97;;;10.77;;
7330;SDS011;3706;49.198;7.064;2023-10-19T14:52:18;4.07;;;3.67;;
7330;SDS011;3706;49.198;7.064;2023-10-19T14:54:48;2.10;;;1.80;;
7330;SDS011;3706;49.198;7.064;2023-10-19T14:57:17;2.17;;;1.97;;
7330;SDS011;3706;49.198;7.064;2023-10-19T14:59:44;2.40;;;2.10;;
7330;SDS011;3706;49.198;7.064;2023-10-19T15:02:11;2.33;;;2.13;;
7330;SDS011;3706;49.198;7.064;2023-10-19T15:04:38;3.27;;;1.93;;
7330;SDS011;3706;49.198;7.064;2023-10-19T15:07:05;4.37;;;2.57;;
7330;SDS011;3706;49.198;7.064;2023-10-19T15:09:33;2.40;;;2.20;;
7330;SDS011;3706;49.198;7.064;2023-10-19T15:11:59;4.83;;;2.07;;
7330;SDS011;3706;49.198;7.064;2023-10-19T15:14:29;5.63;;;2.57;;
7330;SDS011;3706;49.198;7.064;2023-10-19T15:16:56;2.73;;;2.27;;
7330;SDS011;3706;49.198;7.064;2023-10-19T15:19:23;2.47;;;2.27;;